createdAt,value
2017-09-13T08:05:57.421Z,84.17
2017-09-13T08:06:58.053Z,83.15
2017-09-13T08:07:58.677Z,83.44
2017-09-13T08:09:12.918Z,82.67
2017-09-13T08:10:13.538Z,82.67
2017-09-13T08:11:14.163Z,82.73
2017-09-13T08:12:14.782Z,82.86
2017-09-13T08:13:15.391Z,84.26
2017-09-13T08:14:53.616Z,81.90
2017-09-13T08:15:54.244Z,81.07
2017-09-13T08:16:54.883Z,80.88
2017-09-13T08:17:55.511Z,80.69
2017-09-13T08:18:56.132Z,80.69
2017-09-13T08:19:56.781Z,80.11
2017-09-13T08:20:57.420Z,79.92
2017-09-13T08:21:58.197Z,79.96
2017-09-13T08:22:58.959Z,79.77
2017-09-13T08:23:59.581Z,79.00
2017-09-13T08:25:00.213Z,78.90
2017-09-13T08:26:00.837Z,78.42
2017-09-13T08:27:01.486Z,78.90
2017-09-13T08:28:02.113Z,79.00
2017-09-13T08:29:02.728Z,79.48
2017-09-13T08:30:03.433Z,78.71
2017-09-13T08:31:04.076Z,78.36
2017-09-13T08:32:04.700Z,77.59
2017-09-13T08:33:05.334Z,77.69
2017-09-13T08:34:05.972Z,78.46
2017-09-13T08:35:06.603Z,79.48
2017-09-13T08:36:07.241Z,80.02
2017-09-13T08:37:07.894Z,82.67
2017-09-13T08:38:08.534Z,85.32
2017-09-13T08:39:09.167Z,86.62
2017-09-13T08:40:09.793Z,88.45
2017-09-13T08:41:10.398Z,89.89
2017-09-13T08:42:11.030Z,90.66
2017-09-13T08:43:11.664Z,91.81
2017-09-13T08:44:12.290Z,93.06
2017-09-13T08:45:12.922Z,93.78
2017-09-13T10:22:48.226Z,73.46
